Time;durP1;ratioP1;P1;durP2;ratioP2;P2;SDS_P1;SDS_P2;PMS_P1;PMS_P2;Temp;Humidity;BMP_temperature;BMP_pressure;BME280_temperature;BME280_humidity;BME280_pressure;Samples;Min_cycle;Max_cycle;Signal;HPM_P1;HPM_P2
2023/05/06 00:02:12;;;;;;;10.47;8.60;;;11.60;99.90;;;11.62;65.51;95099.75;5034224;28;20495;-67
2023/05/06 00:04:40;;;;;;;11.27;8.07;;;11.60;99.90;;;11.57;65.47;95096.69;5029550;28;20552;-56
2023/05/06 00:07:08;;;;;;;12.90;10.00;;;11.50;99.90;;;11.52;65.47;95098.91;5036899;28;20971;-68
2023/05/06 00:09:36;;;;;;;9.70;8.23;;;11.50;99.90;;;11.46;65.63;95095.88;5036830;28;20463;-54
2023/05/06 00:12:04;;;;;;;13.67;7.90;;;11.40;99.90;;;11.42;65.81;95091.84;5032258;28;20481;-55
2023/05/06 00:14:31;;;;;;;8.20;7.40;;;11.40;99.90;;;11.37;65.84;95095.88;5036011;28;20463;-55
2023/05/06 00:16:58;;;;;;;9.63;8.20;;;11.40;99.90;;;11.34;65.83;95097.00;5031720;28;20468;-56
2023/05/06 00:19:26;;;;;;;9.63;7.50;;;11.30;99.90;;;11.30;66.08;95085.06;5034443;28;20470;-56
2023/05/06 00:21:54;;;;;;;8.37;7.57;;;11.30;99.90;;;11.27;66.40;95093.25;5036191;28;20860;-69
2023/05/06 00:24:23;;;;;;;9.60;8.63;;;11.20;99.90;;;11.24;66.10;95090.88;5032583;28;20459;-56
2023/05/06 00:26:50;;;;;;;8.23;7.43;;;11.20;99.90;;;11.19;66.02;95088.66;5036027;28;20461;-56
2023/05/06 00:29:18;;;;;;;9.10;8.20;;;11.20;99.90;;;11.15;66.41;95081.19;5037872;28;20479;-57
2023/05/06 00:31:45;;;;;;;8.47;7.57;;;11.10;99.90;;;11.11;66.54;95091.16;5033141;28;20980;-56
2023/05/06 00:34:12;;;;;;;8.80;7.90;;;11.10;99.90;;;11.07;66.70;95077.44;5032060;28;20511;-68
2023/05/06 00:36:41;;;;;;;19.83;8.97;;;11.00;99.90;;;11.04;66.69;95080.34;5032493;28;20456;-67
2023/05/06 00:39:08;;;;;;;11.10;8.77;;;11.00;99.90;;;11.02;66.85;95084.91;5035816;28;20547;-56
2023/05/06 00:41:37;;;;;;;9.00;7.50;;;11.00;99.90;;;11.01;66.87;95080.59;5032138;28;20875;-57
2023/05/06 00:44:04;;;;;;;10.43;7.73;;;11.00;99.90;;;10.99;66.87;95079.94;5034467;28;20870;-68
2023/05/06 00:46:32;;;;;;;8.17;7.37;;;10.90;99.90;;;10.98;67.19;95088.78;5033453;28;20459;-58
2023/05/06 00:48:59;;;;;;;8.60;7.30;;;10.90;99.90;;;10.97;67.09;95084.50;5034023;28;21098;-57
2023/05/06 00:51:26;;;;;;;8.23;6.90;;;10.90;99.90;;;10.96;67.16;95088.09;5032091;28;20872;-56
2023/05/06 00:53:54;;;;;;;12.70;7.90;;;10.90;99.90;;;10.97;67.08;95092.41;5036873;28;20559;-69
2023/05/06 00:56:21;;;;;;;14.57;8.27;;;10.90;99.90;;;10.94;67.23;95087.41;5030190;28;20468;-66
2023/05/06 00:58:50;;;;;;;12.73;8.43;;;10.90;99.90;;;10.94;67.17;95090.88;5028906;28;20480;-57
2023/05/06 01:01:17;;;;;;;8.33;7.43;;;10.90;99.90;;;10.93;67.32;95083.94;5034526;28;20542;-67
2023/05/06 01:03:44;;;;;;;8.20;7.20;;;10.90;99.90;;;10.93;67.32;95088.38;5036802;28;20495;-68
2023/05/06 01:06:19;;;;;;;9.53;7.77;;;10.90;99.90;;;10.91;67.50;95085.88;5038299;28;20470;-67
2023/05/06 01:08:55;;;;;;;10.63;7.13;;;10.90;99.90;;;10.89;67.58;95082.56;5035138;28;20491;-56
2023/05/06 01:11:27;;;;;;;12.20;8.60;;;10.80;99.90;;;10.89;67.58;95079.94;5034126;28;20535;-68
2023/05/06 01:14:01;;;;;;;12.50;8.97;;;10.80;99.90;;;10.89;67.96;95079.94;5031210;28;20480;-56
2023/05/06 01:16:29;;;;;;;8.17;7.37;;;10.90;99.90;;;10.88;68.03;95085.31;5037222;28;20526;-56
2023/05/06 01:18:57;;;;;;;9.10;7.17;;;10.80;99.90;;;10.87;67.93;95078.38;5034997;28;20514;-66
2023/05/06 01:21:25;;;;;;;9.00;7.60;;;10.80;99.90;;;10.86;68.02;95080.19;5037059;28;20452;-57
2023/05/06 01:23:56;;;;;;;8.93;7.90;;;10.80;99.90;;;10.85;67.90;95075.88;5032627;28;20618;-57
2023/05/06 01:26:24;;;;;;;8.10;7.40;;;10.80;99.90;;;10.85;67.87;95065.38;5036530;28;20928;-56
2023/05/06 01:28:51;;;;;;;12.40;7.83;;;10.80;99.90;;;10.84;68.09;95074.22;5035171;28;20560;-56
2023/05/06 01:31:25;;;;;;;9.17;7.90;;;10.80;99.90;;;10.83;68.16;95079.63;5035752;28;20448;-56
2023/05/06 01:34:02;;;;;;;9.83;6.80;;;10.80;99.90;;;10.83;68.20;95076.97;5031041;28;20548;-70
2023/05/06 01:36:34;;;;;;;9.83;7.37;;;10.80;99.90;;;10.81;68.02;95074.50;5031566;28;20780;-55
2023/05/06 01:39:10;;;;;;;10.33;7.77;;;10.80;99.90;;;10.79;68.27;95075.63;5037202;28;20486;-56
2023/05/06 01:41:39;;;;;;;7.07;6.47;;;10.80;99.90;;;10.76;67.92;95067.00;5035767;28;21076;-69
2023/05/06 01:44:07;;;;;;;8.80;6.90;;;10.70;99.90;;;10.77;68.21;95062.59;5035674;28;20496;-68
2023/05/06 01:46:34;;;;;;;9.87;7.70;;;10.70;99.90;;;10.77;68.37;95066.03;5035739;28;20451;-69
2023/05/06 01:49:06;;;;;;;10.10;6.90;;;10.70;99.90;;;10.77;68.43;95063.41;5035324;28;20479;-55
2023/05/06 01:51:34;;;;;;;9.80;7.67;;;10.70;99.90;;;10.77;68.31;95062.59;5032658;28;20973;-70
2023/05/06 01:54:02;;;;;;;8.40;7.60;;;10.70;99.90;;;10.77;68.26;95060.78;5036722;28;20476;-57
2023/05/06 01:56:30;;;;;;;8.63;7.60;;;10.70;99.90;;;10.77;68.02;95063.41;5035500;28;20569;-70
2023/05/06 01:58:58;;;;;;;10.17;7.83;;;10.70;99.90;;;10.75;67.69;95060.09;5036723;28;20471;-67
2023/05/06 02:01:25;;;;;;;8.07;7.27;;;10.70;99.90;;;10.71;68.26;95061.34;5035908;28;20459;-57
2023/05/06 02:03:53;;;;;;;11.70;9.60;;;10.70;99.90;;;10.69;68.20;95059.78;5036115;28;21061;-67
2023/05/06 02:06:20;;;;;;;9.17;7.80;;;10.70;99.90;;;10.67;68.14;95067.81;5034171;28;20457;-58
2023/05/06 02:08:47;;;;;;;9.63;8.00;;;10.60;99.90;;;10.67;68.69;95067.00;5035770;28;20750;-56
2023/05/06 02:11:16;;;;;;;9.43;7.77;;;10.60;99.90;;;10.67;68.32;95067.81;5034293;28;20452;-67
2023/05/06 02:13:43;;;;;;;8.20;7.40;;;10.60;99.90;;;10.67;68.23;95057.28;5035620;28;20468;-68
2023/05/06 02:16:10;;;;;;;9.37;7.00;;;10.60;99.90;;;10.65;67.96;95056.59;5030341;28;20459;-57
2023/05/06 02:18:38;;;;;;;10.73;7.70;;;10.60;99.90;;;10.67;68.50;95059.94;5034233;28;20554;-68
2023/05/06 02:21:05;;;;;;;8.43;7.63;;;10.60;99.90;;;10.68;68.60;95058.16;5036553;28;20865;-66
2023/05/06 02:23:32;;;;;;;7.70;6.90;;;10.60;99.90;;;10.68;68.41;95058.97;5032943;28;20500;-62
2023/05/06 02:25:59;;;;;;;7.20;6.60;;;10.60;99.90;;;10.68;68.48;95061.59;5033068;28;20460;-65
2023/05/06 02:28:28;;;;;;;8.50;7.60;;;10.60;99.90;;;10.69;68.76;95063.28;5034722;28;20468;-66
2023/05/06 02:30:56;;;;;;;9.90;7.73;;;10.60;99.90;;;10.71;68.80;95065.78;5036189;28;20468;-56
2023/05/06 02:33:23;;;;;;;12.20;7.63;;;10.60;99.90;;;10.71;68.32;95069.22;5034569;28;20496;-68
2023/05/06 02:35:51;;;;;;;7.63;6.93;;;10.60;99.90;;;10.70;68.34;95072.00;5033676;28;20552;-67
2023/05/06 02:38:18;;;;;;;9.07;8.20;;;10.60;99.90;;;10.68;68.30;95069.50;5029742;28;20519;-58
2023/05/06 02:40:45;;;;;;;18.07;8.00;;;10.60;99.90;;;10.68;68.36;95072.13;5034438;28;20532;-56
2023/05/06 02:43:12;;;;;;;7.93;7.13;;;10.60;99.90;;;10.68;68.45;95072.13;5036660;28;21032;-56
2023/05/06 02:45:41;;;;;;;8.43;7.63;;;10.60;99.90;;;10.69;68.07;95071.16;5030273;28;20546;-66
2023/05/06 02:48:08;;;;;;;12.10;7.27;;;10.60;99.90;;;10.67;68.40;95062.56;5029615;28;20492;-56
2023/05/06 02:50:36;;;;;;;8.80;7.10;;;10.60;99.90;;;10.66;68.21;95065.31;5033582;28;20483;-67
2023/05/06 02:53:03;;;;;;;8.37;7.13;;;10.60;99.90;;;10.66;68.48;95066.19;5035040;28;21129;-62
2023/05/06 02:55:30;;;;;;;8.30;7.40;;;10.60;99.90;;;10.69;68.48;95071.16;5034708;28;20456;-66
2023/05/06 02:57:58;;;;;;;7.83;7.00;;;10.60;99.90;;;10.69;68.96;95070.31;5032695;28;20477;-67
2023/05/06 03:00:25;;;;;;;11.23;7.73;;;10.60;99.90;;;10.68;68.48;95080.00;5027859;28;20464;-56
2023/05/06 03:02:53;;;;;;;13.90;7.93;;;10.60;99.90;;;10.66;68.28;95074.06;5036416;28;20492;-57
2023/05/06 03:05:21;;;;;;;9.53;7.67;;;10.60;99.90;;;10.63;68.39;95071.72;5035875;28;20447;-65
2023/05/06 03:07:48;;;;;;;9.53;8.50;;;10.60;99.90;;;10.63;68.78;95076.13;5034496;28;20539;-68
2023/05/06 03:10:15;;;;;;;7.70;6.90;;;10.60;99.90;;;10.63;68.81;95078.75;5033392;28;20456;-57
2023/05/06 03:12:42;;;;;;;8.93;7.97;;;10.60;99.90;;;10.64;68.71;95080.41;5035659;28;20465;-56
2023/05/06 03:15:11;;;;;;;10.23;6.90;;;10.60;99.90;;;10.62;68.91;95085.81;5032926;28;20538;-57
2023/05/06 03:17:38;;;;;;;12.83;7.70;;;10.60;99.90;;;10.64;68.91;95088.31;5032504;28;20538;-68
2023/05/06 03:20:09;;;;;;;8.33;7.53;;;10.60;99.90;;;10.64;68.63;95089.13;5035950;28;20459;-56
2023/05/06 03:22:36;;;;;;;12.17;7.80;;;10.60;99.90;;;10.65;69.15;95085.53;5034582;28;20562;-68
2023/05/06 03:25:04;;;;;;;12.60;8.70;;;10.60;99.90;;;10.64;68.98;95091.75;5035947;28;20501;-58
2023/05/06 03:27:31;;;;;;;9.33;8.40;;;10.60;99.90;;;10.63;68.91;95092.75;5032941;28;20951;-56
2023/05/06 03:29:58;;;;;;;8.40;7.60;;;10.60;99.90;;;10.64;68.93;95098.84;5037772;28;20455;-67
2023/05/06 03:32:26;;;;;;;10.07;7.30;;;10.60;99.90;;;10.62;68.52;95098.16;5036719;28;20471;-69
2023/05/06 03:34:53;;;;;;;11.50;8.13;;;10.60;99.90;;;10.59;67.99;95110.56;5037364;28;20460;-57
2023/05/06 03:37:22;;;;;;;7.77;6.90;;;10.50;99.90;;;10.56;67.79;95105.59;5040585;28;20468;-68
2023/05/06 03:39:49;;;;;;;11.33;7.60;;;10.50;99.90;;;10.53;67.79;95105.88;5038514;28;20460;-68
2023/05/06 03:42:16;;;;;;;7.60;6.80;;;10.50;99.90;;;10.52;67.81;95114.72;5038685;28;20480;-69
2023/05/06 03:44:43;;;;;;;7.80;7.10;;;10.50;99.90;;;10.51;67.86;95109.59;5037220;28;20490;-57
2023/05/06 03:47:11;;;;;;;9.83;8.07;;;10.50;99.90;;;10.50;67.84;95115.81;5038200;28;20492;-57
2023/05/06 03:49:38;;;;;;;9.70;8.10;;;10.50;99.90;;;10.48;67.76;95112.50;5038435;28;21136;-68
2023/05/06 03:52:06;;;;;;;10.27;7.60;;;10.40;99.90;;;10.49;67.73;95111.53;5039305;28;20550;-57
2023/05/06 03:54:34;;;;;;;8.07;7.23;;;10.50;99.90;;;10.50;67.56;95115.81;5033862;28;20440;-57
2023/05/06 03:57:02;;;;;;;9.13;7.20;;;10.40;99.90;;;10.49;67.50;95114.16;5037051;28;20526;-70
2023/05/06 03:59:29;;;;;;;7.73;6.93;;;10.50;99.90;;;10.50;67.69;95115.81;5036119;28;20463;-69
2023/05/06 04:01:56;;;;;;;9.67;7.40;;;10.50;99.90;;;10.50;67.52;95119.31;5035380;28;20457;-56
2023/05/06 04:04:24;;;;;;;9.70;6.43;;;10.40;99.90;;;10.52;67.39;95117.34;5036664;28;20511;-58
2023/05/06 04:06:51;;;;;;;14.27;7.57;;;10.50;99.90;;;10.54;67.40;95114.59;5041145;28;20471;-56
2023/05/06 04:09:18;;;;;;;7.83;6.77;;;10.50;99.90;;;10.57;67.49;95124.84;5032750;28;20736;-66
2023/05/06 04:11:47;;;;;;;16.50;7.80;;;10.50;99.90;;;10.59;67.45;95128.16;5038254;28;20459;-66
2023/05/06 04:14:14;;;;;;;12.00;7.00;;;10.50;99.90;;;10.63;67.47;95134.84;5039024;28;20456;-65
2023/05/06 04:16:41;;;;;;;10.67;7.77;;;10.60;99.90;;;10.68;67.45;95135.25;5036334;28;20507;-66
2023/05/06 04:19:09;;;;;;;8.63;6.77;;;10.60;99.90;;;10.73;67.45;95140.94;5037470;28;20482;-70
2023/05/06 04:21:36;;;;;;;7.50;6.67;;;10.70;99.90;;;10.77;67.38;95139.72;5032294;28;20452;-67
2023/05/06 04:24:04;;;;;;;8.07;7.00;;;10.70;99.90;;;10.83;67.08;95134.88;5040878;28;20491;-57
2023/05/06 04:26:31;;;;;;;14.40;8.33;;;10.80;99.90;;;10.90;67.01;95128.94;5035938;28;20452;-56
2023/05/06 04:29:00;;;;;;;8.57;7.40;;;10.80;99.90;;;11.00;67.49;95128.97;5036722;28;20554;-69
2023/05/06 04:31:28;;;;;;;10.60;7.80;;;10.90;99.90;;;11.12;67.27;95134.94;5034478;28;21157;-56
2023/05/06 04:33:55;;;;;;;9.50;8.47;;;11.00;99.90;;;11.22;66.29;95134.97;5032157;28;20559;-69
2023/05/06 04:36:22;;;;;;;9.30;8.13;;;11.10;99.90;;;11.30;66.72;95132.47;5032046;28;20483;-58
2023/05/06 04:38:51;;;;;;;13.10;8.50;;;11.20;99.90;;;11.38;66.42;95135.22;5037213;28;20999;-69
2023/05/06 04:41:19;;;;;;;8.50;7.47;;;11.30;99.90;;;11.47;66.32;95134.41;5033460;28;21086;-68
2023/05/06 04:43:46;;;;;;;10.27;7.00;;;11.40;99.90;;;11.56;66.50;95134.56;5037830;28;20557;-57
2023/05/06 04:46:15;;;;;;;9.57;7.93;;;11.50;99.90;;;11.64;66.35;95137.31;5037112;28;20452;-58
2023/05/06 04:48:43;;;;;;;8.53;7.60;;;11.60;99.90;;;11.73;66.48;95136.47;5033176;28;20469;-70
2023/05/06 04:51:10;;;;;;;10.40;8.77;;;11.60;99.90;;;11.84;66.47;95146.03;5036768;28;20450;-69
2023/05/06 04:53:38;;;;;;;9.73;7.27;;;11.70;99.90;;;11.95;67.35;95148.53;5036930;28;20497;-57
2023/05/06 04:56:05;;;;;;;17.33;8.40;;;11.80;99.90;;;12.10;66.31;95151.56;5035378;28;20799;-67
2023/05/06 04:58:33;;;;;;;11.53;8.43;;;12.00;99.90;;;12.25;66.22;95149.31;5037313;28;20471;-68
2023/05/06 05:01:03;;;;;;;8.33;7.53;;;12.10;99.90;;;12.41;66.35;95147.88;5035802;28;20469;-67
2023/05/06 05:03:32;;;;;;;9.10;7.00;;;12.30;99.90;;;12.59;65.95;95145.31;5031300;28;20491;-58
2023/05/06 05:05:59;;;;;;;11.23;8.00;;;12.40;99.90;;;12.78;65.92;95155.78;5030432;28;21010;-67
2023/05/06 05:08:26;;;;;;;7.20;6.50;;;12.60;99.90;;;12.97;65.61;95156.66;5028916;28;21311;-58
2023/05/06 05:10:53;;;;;;;8.67;7.13;;;12.80;99.90;;;13.14;65.14;95155.88;5028589;28;21294;-67
2023/05/06 05:13:21;;;;;;;7.50;6.70;;;13.00;99.90;;;13.27;65.01;95161.59;5032273;28;20927;-57
2023/05/06 05:15:48;;;;;;;11.53;5.93;;;13.10;99.90;;;13.41;64.54;95159.47;5033790;28;20461;-57
2023/05/06 05:18:16;;;;;;;10.90;6.70;;;13.20;99.90;;;13.52;64.40;95164.53;5033924;28;20542;-69
2023/05/06 05:20:44;;;;;;;8.23;6.17;;;13.40;99.90;;;13.65;63.72;95169.44;5032172;28;20457;-67
2023/05/06 05:23:12;;;;;;;8.87;6.40;;;13.50;99.90;;;13.74;63.73;95159.75;5036113;28;20490;-57
2023/05/06 05:25:39;;;;;;;7.50;6.33;;;13.60;99.90;;;13.91;63.09;95164.22;5030770;28;20974;-67
2023/05/06 05:28:06;;;;;;;6.70;6.00;;;13.70;99.90;;;14.03;63.10;95166.63;5027681;28;20480;-68
2023/05/06 05:30:34;;;;;;;6.83;6.23;;;13.80;99.90;;;14.17;62.94;95168.69;5032284;28;21061;-58
2023/05/06 05:33:01;;;;;;;6.57;5.80;;;14.00;99.90;;;14.41;62.46;95164.56;5032960;28;20484;-58
2023/05/06 05:35:29;;;;;;;6.53;5.97;;;14.10;99.90;;;14.64;61.60;95165.72;5031272;28;20527;-66
2023/05/06 05:37:57;;;;;;;7.63;6.77;;;14.30;99.90;;;14.83;60.85;95153.25;5033947;28;20486;-66
2023/05/06 05:40:25;;;;;;;6.60;5.97;;;14.50;99.90;;;14.92;60.71;95154.09;5030834;28;20471;-67
2023/05/06 05:42:52;;;;;;;11.50;5.50;;;14.70;99.90;;;14.98;60.55;95164.03;5031596;28;20484;-61
2023/05/06 05:45:20;;;;;;;8.07;6.67;;;14.70;99.90;;;15.00;60.55;95157.59;5030891;28;20499;-66
2023/05/06 05:47:47;;;;;;;6.37;5.70;;;14.80;99.80;;;15.05;60.60;95162.41;5030966;28;20477;-68
2023/05/06 05:50:14;;;;;;;7.87;4.70;;;14.80;99.70;;;15.08;60.27;95146.19;5030813;28;20456;-67
2023/05/06 05:52:41;;;;;;;8.77;5.93;;;14.90;99.60;;;15.12;60.46;95158.16;5034987;28;20524;-58
2023/05/06 05:55:10;;;;;;;6.73;5.47;;;14.90;99.50;;;15.15;60.50;95162.28;5027214;28;20477;-69
2023/05/06 05:57:38;;;;;;;6.53;6.03;;;14.90;99.50;;;15.16;60.34;95161.28;5027209;28;20471;-66
2023/05/06 06:00:08;;;;;;;13.37;6.97;;;15.00;99.50;;;15.15;60.28;95159.63;5029795;28;20457;-68
2023/05/06 06:02:35;;;;;;;7.30;6.20;;;15.00;99.50;;;15.13;60.08;95158.97;5034894;28;20472;-74
2023/05/06 06:05:03;;;;;;;6.60;6.00;;;15.00;99.40;;;15.09;60.32;95174.38;5026776;28;20508;-66
2023/05/06 06:07:30;;;;;;;12.77;6.70;;;14.90;99.40;;;15.05;60.33;95173.84;5031527;28;20556;-65
2023/05/06 06:09:57;;;;;;;10.10;7.40;;;14.90;99.50;;;15.06;60.62;95170.22;5025631;28;20464;-65
2023/05/06 06:12:26;;;;;;;8.13;6.27;;;14.90;99.50;;;15.06;60.43;95169.38;5035096;28;20502;-64
2023/05/06 06:14:53;;;;;;;8.87;7.00;;;14.90;99.50;;;15.06;60.56;95172.84;5035088;28;20449;-59
2023/05/06 06:17:21;;;;;;;10.30;7.13;;;14.90;99.50;;;15.08;60.70;95172.69;5036795;28;20468;-56
2023/05/06 06:19:49;;;;;;;8.97;8.00;;;14.90;99.50;;;15.10;60.69;95175.19;5035529;28;20483;-59
2023/05/06 06:22:16;;;;;;;9.80;6.60;;;14.90;99.60;;;15.14;60.50;95176.53;5037408;28;20471;-58
2023/05/06 06:24:44;;;;;;;8.23;6.30;;;14.90;99.50;;;15.16;60.40;95171.91;5035632;28;20590;-57
2023/05/06 06:27:11;;;;;;;10.83;6.93;;;15.00;99.50;;;15.21;60.37;95177.53;5038599;28;20487;-65
2023/05/06 06:29:40;;;;;;;6.30;5.70;;;15.00;99.40;;;15.23;60.33;95170.28;5038692;28;20447;-58
2023/05/06 06:32:07;;;;;;;12.60;6.47;;;15.10;99.30;;;15.26;60.12;95175.25;5034064;28;20468;-59
2023/05/06 06:34:35;;;;;;;9.70;7.03;;;15.10;99.30;;;15.29;59.83;95169.63;5037738;28;20502;-58
2023/05/06 06:37:02;;;;;;;8.27;6.67;;;15.10;99.10;;;15.31;59.99;95167.63;5036210;28;20499;-65
2023/05/06 06:39:29;;;;;;;11.50;6.80;;;15.10;98.90;;;15.36;59.95;95170.63;5037321;28;20916;-58
2023/05/06 06:41:57;;;;;;;6.47;5.83;;;15.20;99.30;;;15.40;59.26;95173.78;5033049;28;20940;-65
2023/05/06 06:44:24;;;;;;;9.73;7.20;;;15.20;98.70;;;15.41;59.47;95178.94;5037419;28;20579;-66
2023/05/06 06:46:53;;;;;;;9.00;7.57;;;15.20;98.70;;;15.44;59.82;95176.94;5038194;28;20470;-64
2023/05/06 06:49:20;;;;;;;14.17;7.40;;;15.30;98.80;;;15.45;59.18;95176.78;5035648;28;20570;-57
2023/05/06 06:51:48;;;;;;;9.73;7.40;;;15.30;98.60;;;15.47;58.93;95176.63;5038174;28;21095;-58
2023/05/06 06:54:15;;;;;;;11.27;8.20;;;15.30;98.30;;;15.45;59.18;95181.25;5036644;28;20864;-59
2023/05/06 06:56:42;;;;;;;11.53;7.60;;;15.30;98.40;;;15.44;58.90;95179.59;5036604;28;20467;-58
2023/05/06 06:59:10;;;;;;;10.13;8.10;;;15.20;98.30;;;15.46;58.94;95182.91;5038616;28;20444;-65
2023/05/06 07:01:37;;;;;;;9.53;8.07;;;15.20;98.20;;;15.46;58.98;95182.91;5037473;28;20495;-67
2023/05/06 07:04:06;;;;;;;18.27;8.60;;;15.30;98.30;;;15.48;59.00;95178.28;5038326;28;21011;-65
2023/05/06 07:06:33;;;;;;;11.53;8.07;;;15.30;98.30;;;15.50;58.53;95189.53;5039080;28;20459;-65
2023/05/06 07:09:00;;;;;;;10.27;8.33;;;15.30;98.00;;;15.49;58.84;95186.09;5034296;28;20483;-65
2023/05/06 07:11:28;;;;;;;11.50;9.30;;;15.30;98.10;;;15.50;58.93;95187.72;5039003;28;20457;-57
2023/05/06 07:13:55;;;;;;;15.00;7.93;;;15.30;98.00;;;15.50;58.74;95186.91;5040456;28;20472;-65
2023/05/06 07:16:22;;;;;;;18.50;7.97;;;15.40;98.00;;;15.52;58.84;95184.91;5038537;28;20947;-67
2023/05/06 07:18:52;;;;;;;9.07;7.63;;;15.40;98.00;;;15.57;58.92;95191.38;5038482;28;20488;-57
2023/05/06 07:21:21;;;;;;;10.63;7.97;;;15.40;98.10;;;15.63;58.73;95195.22;5038083;28;20447;-66
2023/05/06 07:23:48;;;;;;;14.60;8.20;;;15.50;98.00;;;15.65;58.64;95187.91;5040204;28;20500;-66
2023/05/06 07:26:16;;;;;;;10.00;8.57;;;15.50;97.90;;;15.69;58.41;95193.72;5038153;28;20447;-66
2023/05/06 07:28:43;;;;;;;19.13;8.73;;;15.50;97.80;;;15.71;58.55;95189.91;5040128;28;20872;-57
2023/05/06 07:31:10;;;;;;;11.80;8.43;;;15.60;97.80;;;15.75;58.57;95201.88;5040170;28;20453;-65
2023/05/06 07:33:37;;;;;;;9.53;7.33;;;15.60;97.80;;;15.82;58.15;95206.53;5035984;28;20473;-56
2023/05/06 07:36:05;;;;;;;12.90;8.40;;;15.70;97.70;;;15.88;58.27;95197.91;5033901;28;20925;-66
2023/05/06 07:38:34;;;;;;;10.73;7.67;;;15.70;97.70;;;15.98;58.38;95205.72;5040046;28;20859;-58
2023/05/06 07:41:01;;;;;;;11.00;8.17;;;15.80;97.80;;;16.11;58.21;95206.06;5033380;28;20436;-64
2023/05/06 07:43:29;;;;;;;11.77;8.87;;;15.90;97.80;;;16.27;57.97;95205.25;5040134;28;20468;-57
2023/05/06 07:46:01;;;;;;;8.20;6.50;;;16.10;97.70;;;16.44;57.95;95195.44;5036619;28;20499;-65
2023/05/06 07:48:28;;;;;;;6.80;5.60;;;16.20;97.50;;;16.59;57.25;95198.22;5039108;28;20467;-65
2023/05/06 07:50:56;;;;;;;6.83;5.93;;;16.40;97.10;;;16.72;57.36;95198.53;5038106;28;20460;-56
2023/05/06 07:53:23;;;;;;;18.03;6.50;;;16.50;97.00;;;16.88;57.11;95203.00;5038474;28;20482;-65
2023/05/06 07:55:54;;;;;;;6.10;5.53;;;16.60;96.90;;;17.10;56.47;95204.09;5036523;28;20570;-58
2023/05/06 07:58:21;;;;;;;7.80;6.30;;;16.80;96.70;;;17.32;56.04;95201.66;5036286;28;20553;-58
2023/05/06 08:00:48;;;;;;;8.73;6.80;;;17.00;96.50;;;17.49;55.97;95200.59;5040810;28;20456;-67
2023/05/06 08:03:16;;;;;;;12.70;7.93;;;17.20;96.20;;;17.69;55.38;95210.78;5036003;28;20498;-57
2023/05/06 08:05:43;;;;;;;11.53;5.60;;;17.40;96.10;;;17.91;55.58;95206.53;5039048;28;20906;-66
2023/05/06 08:08:10;;;;;;;8.67;5.00;;;17.60;95.80;;;18.14;54.99;95203.88;5038236;28;21011;-66
2023/05/06 08:10:38;;;;;;;13.70;5.50;;;17.90;95.30;;;18.38;53.98;95205.47;5037283;28;20456;-56
2023/05/06 08:13:06;;;;;;;8.70;6.47;;;18.10;95.00;;;18.64;53.06;95204.25;5035184;28;20475;-55
2023/05/06 08:15:34;;;;;;;6.27;4.87;;;18.30;94.20;;;18.91;52.71;95202.84;5038138;28;20453;-58
2023/05/06 08:18:01;;;;;;;6.77;5.87;;;18.60;93.70;;;19.18;52.70;95200.56;5030839;28;20480;-57
2023/05/06 08:20:28;;;;;;;8.20;6.30;;;18.80;93.60;;;19.47;52.21;95197.03;5036589;28;20962;-59
2023/05/06 08:22:55;;;;;;;8.10;5.73;;;19.10;93.40;;;19.87;52.07;95196.66;5038989;28;20473;-66
2023/05/06 08:25:23;;;;;;;10.33;6.03;;;19.50;93.20;;;20.19;50.80;95195.31;5036510;28;20990;-58
2023/05/06 08:27:50;;;;;;;5.93;5.37;;;19.80;91.70;;;20.37;50.51;95192.19;5037279;28;20472;-67
2023/05/06 08:30:19;;;;;;;7.40;6.30;;;20.00;91.30;;;20.60;50.26;95201.81;5039021;28;20538;-65
2023/05/06 08:32:46;;;;;;;12.13;5.73;;;20.30;91.00;;;20.72;47.52;95196.81;5035098;28;20576;-65
2023/05/06 08:35:13;;;;;;;5.60;5.10;;;20.40;86.70;;;20.93;49.10;95193.25;5038056;28;20817;-56
2023/05/06 08:37:41;;;;;;;6.10;5.03;;;20.60;88.70;;;21.25;46.69;95188.28;5036006;28;20956;-58
2023/05/06 08:40:14;;;;;;;4.23;3.90;;;20.80;85.30;;;21.56;46.71;95192.34;5032726;28;20469;-57
2023/05/06 08:42:42;;;;;;;4.73;4.43;;;21.10;84.70;;;21.81;47.70;95190.78;5035591;28;20471;-57
2023/05/06 08:45:11;;;;;;;14.93;5.33;;;21.40;85.50;;;22.19;47.25;95194.78;5037583;28;20826;-58
2023/05/06 08:47:40;;;;;;;8.23;5.77;;;21.80;85.90;;;22.46;45.74;95198.31;5038870;28;20953;-68
2023/05/06 08:50:09;;;;;;;5.13;4.53;;;22.00;81.90;;;22.39;46.09;95197.50;5036211;28;20453;-65
2023/05/06 08:52:36;;;;;;;8.20;5.23;;;22.10;79.90;;;22.17;45.22;95192.31;5037474;28;20557;-65
2023/05/06 08:55:05;;;;;;;5.27;4.63;;;22.00;78.10;;;21.90;46.29;95188.75;5036490;28;20960;-56
2023/05/06 08:57:34;;;;;;;11.10;5.10;;;21.80;78.80;;;21.68;46.37;95185.38;5037139;28;21238;-64
2023/05/06 09:00:02;;;;;;;6.17;4.83;;;21.60;78.70;;;21.46;46.68;95185.50;5034596;28;20483;-66
2023/05/06 09:02:30;;;;;;;5.47;4.83;;;21.30;79.00;;;21.35;46.97;95183.38;5036751;28;20521;-65
2023/05/06 09:04:59;;;;;;;10.43;4.93;;;21.20;79.20;;;21.46;45.85;95168.63;5034750;28;20491;-57
2023/05/06 09:07:26;;;;;;;4.40;4.00;;;21.20;78.00;;;21.56;46.45;95176.28;5036598;28;20542;-56
2023/05/06 09:09:53;;;;;;;5.87;5.30;;;21.30;78.60;;;21.65;45.48;95175.09;5038463;28;20452;-58
2023/05/06 09:12:20;;;;;;;4.63;4.23;;;21.40;77.00;;;21.74;46.42;95168.53;5035810;28;20981;-65
2023/05/06 09:14:49;;;;;;;10.50;4.80;;;21.50;78.80;;;21.87;45.47;95154.31;5037664;28;21286;-58
2023/05/06 09:17:22;;;;;;;3.90;3.50;;;21.50;77.00;;;21.87;44.74;95169.59;5035964;28;20472;-57
2023/05/06 09:19:52;;;;;;;4.13;3.47;;;21.50;74.90;;;21.89;45.15;95159.47;5034863;28;20455;-56
2023/05/06 09:22:21;;;;;;;8.53;3.73;;;21.60;74.20;;;22.06;44.73;95152.72;5036948;28;20559;-58
2023/05/06 09:24:55;;;;;;;3.23;3.03;;;21.70;74.80;;;22.37;44.79;95146.78;5034508;28;20503;-65
2023/05/06 09:27:23;;;;;;;3.80;3.60;;;21.90;75.20;;;22.76;44.62;95148.81;5037501;28;20499;-57
2023/05/06 09:30:01;;;;;;;7.47;3.70;;;22.30;74.30;;;22.97;43.45;95148.56;5035700;28;20452;-65
2023/05/06 09:32:28;;;;;;;3.57;3.27;;;22.50;72.80;;;23.12;42.68;95136.78;5032762;28;20507;-65
2023/05/06 09:34:56;;;;;;;2.90;2.53;;;22.70;71.20;;;23.30;42.85;95133.41;5035187;28;20448;-58
2023/05/06 09:37:25;;;;;;;4.00;3.70;;;22.90;70.70;;;23.52;40.82;95132.09;5036270;28;20491;-65
2023/05/06 09:39:54;;;;;;;5.43;3.77;;;23.10;67.10;;;23.72;41.39;95136.50;5035308;28;20831;-65
2023/05/06 09:42:24;;;;;;;3.80;3.50;;;23.30;66.40;;;23.85;41.21;95139.16;5036530;28;20476;-65
2023/05/06 09:44:53;;;;;;;8.53;3.13;;;23.40;66.80;;;23.89;40.19;95140.38;5034282;28;20524;-65
2023/05/06 09:47:21;;;;;;;10.23;2.90;;;23.50;65.10;;;23.86;41.58;95127.38;5035869;28;20480;-58
2023/05/06 09:49:49;;;;;;;4.23;3.37;;;23.50;65.90;;;23.84;41.03;95134.81;5035992;28;20585;-66
2023/05/06 09:52:18;;;;;;;4.33;4.03;;;23.50;65.30;;;23.76;41.13;95124.31;5031995;28;20484;-65
2023/05/06 09:54:46;;;;;;;6.80;3.50;;;23.50;64.70;;;23.66;41.01;95134.72;5035737;28;20566;-65
2023/05/06 09:57:15;;;;;;;5.10;3.97;;;23.30;65.30;;;23.57;40.80;95124.19;5034736;28;20473;-58
2023/05/06 09:59:44;;;;;;;8.03;3.60;;;23.20;64.50;;;23.51;41.27;95130.41;5037411;28;20463;-57
2023/05/06 10:02:13;;;;;;;4.80;4.10;;;23.20;65.60;;;23.43;41.38;95117.25;5033281;28;20552;-66
2023/05/06 10:04:41;;;;;;;4.40;3.73;;;23.10;65.60;;;23.24;41.46;95124.38;5036317;28;20483;-65
2023/05/06 10:07:10;;;;;;;3.97;3.77;;;22.90;65.00;;;22.98;41.98;95128.75;5036464;28;20475;-64
2023/05/06 10:09:39;;;;;;;8.87;4.17;;;22.80;64.60;;;22.82;42.24;95129.19;5036528;28;20679;-66
2023/05/06 10:12:09;;;;;;;4.23;3.90;;;22.60;65.10;;;22.64;41.56;95122.63;5036403;28;20494;-65
2023/05/06 10:14:36;;;;;;;6.80;4.00;;;22.40;64.80;;;22.47;41.93;95124.91;5035907;28;20483;-56
2023/05/06 10:17:07;;;;;;;10.20;3.70;;;22.20;64.70;;;22.31;42.54;95120.00;5037330;28;20834;-64
2023/05/06 10:19:34;;;;;;;5.30;4.27;;;22.10;65.50;;;22.11;42.35;95117.28;5034507;28;20460;-56
2023/05/06 10:22:09;;;;;;;3.90;3.43;;;21.90;65.00;;;21.95;42.60;95127.38;5036045;28;20468;-65